Time;durP1;ratioP1;P1;durP2;ratioP2;P2;SDS_P1;SDS_P2;PMS_P1;PMS_P2;Temp;Humidity;BMP_temperature;BMP_pressure;BME280_temperature;BME280_humidity;BME280_pressure;Samples;Min_cycle;Max_cycle;Signal;HPM_P1;HPM_P2
2020/12/13 00:00:14;;;;;;;78.13;28.83;;;4.70;99.90;;;;;;4987605;28;20046;-67
2020/12/13 00:02:41;;;;;;;81.93;32.00;;;4.70;99.90;;;;;;4988183;28;20046;-67
2020/12/13 00:05:08;;;;;;;76.27;30.33;;;4.80;99.90;;;;;;4990112;28;20046;-67
2020/12/13 00:07:35;;;;;;;86.40;32.07;;;4.80;99.90;;;;;;4992819;28;20384;-67
2020/12/13 00:10:02;;;;;;;79.13;31.07;;;4.70;99.90;;;;;;4992237;28;20411;-67
2020/12/13 00:12:29;;;;;;;83.97;30.40;;;4.70;99.90;;;;;;4990609;28;20062;-67
2020/12/13 00:14:56;;;;;;;77.53;29.70;;;4.80;99.90;;;;;;4991858;28;20492;-67
2020/12/13 00:17:23;;;;;;;75.97;30.03;;;4.80;99.90;;;;;;4991336;28;20054;-67
2020/12/13 00:19:50;;;;;;;75.83;30.07;;;4.80;99.90;;;;;;4992775;28;20491;-67
2020/12/13 00:22:19;;;;;;;78.73;29.97;;;4.80;99.90;;;;;;4992104;28;20050;-67
2020/12/13 00:24:46;;;;;;;76.30;30.23;;;4.80;99.90;;;;;;4991240;28;20065;-67
2020/12/13 00:27:16;;;;;;;76.10;27.97;;;4.80;99.90;;;;;;4989971;28;20581;-67
2020/12/13 00:29:43;;;;;;;77.60;28.17;;;4.90;99.90;;;;;;4986783;28;20050;-67
2020/12/13 00:32:10;;;;;;;72.80;27.60;;;4.80;99.90;;;;;;4991310;28;20050;-66
2020/12/13 00:34:37;;;;;;;76.70;26.70;;;5.00;99.90;;;;;;4991208;28;20050;-68
2020/12/13 00:37:04;;;;;;;69.33;27.83;;;4.90;99.90;;;;;;4992512;28;20411;-66
2020/12/13 00:39:37;;;;;;;76.27;27.37;;;4.80;99.90;;;;;;4992490;28;20049;-67
2020/12/13 00:42:05;;;;;;;70.83;26.80;;;4.80;99.90;;;;;;4988513;28;20050;-67
2020/12/13 00:44:31;;;;;;;79.90;28.03;;;4.70;99.90;;;;;;4989294;28;20050;-67
2020/12/13 00:47:01;;;;;;;78.53;26.97;;;4.70;99.90;;;;;;4988994;28;20427;-67
2020/12/13 00:49:28;;;;;;;79.40;29.00;;;4.80;99.90;;;;;;4992144;28;20499;-67
2020/12/13 00:52:00;;;;;;;73.87;27.13;;;4.80;99.90;;;;;;4991088;28;20053;-67
2020/12/13 00:54:27;;;;;;;79.03;28.13;;;4.80;99.90;;;;;;4991080;28;20046;-67
2020/12/13 00:56:53;;;;;;;76.53;28.80;;;4.80;99.90;;;;;;4991735;28;20077;-67
2020/12/13 00:59:20;;;;;;;74.90;26.50;;;4.70;99.90;;;;;;4991125;28;20046;-67
2020/12/13 01:01:47;;;;;;;79.50;27.97;;;4.80;99.90;;;;;;4991561;28;20512;-67
2020/12/13 01:04:13;;;;;;;80.07;28.93;;;4.80;99.90;;;;;;4990434;28;20046;-67
2020/12/13 01:06:41;;;;;;;79.37;28.90;;;4.70;99.90;;;;;;4991286;28;20053;-67
2020/12/13 01:09:08;;;;;;;82.53;29.07;;;4.80;99.90;;;;;;4990126;28;20113;-67
2020/12/13 01:11:35;;;;;;;79.13;27.23;;;4.90;99.90;;;;;;4988107;28;20057;-67
2020/12/13 01:14:03;;;;;;;80.63;29.20;;;4.90;99.90;;;;;;4985411;28;20510;-67
2020/12/13 01:16:31;;;;;;;83.03;29.93;;;4.90;99.90;;;;;;4989576;28;20149;-67
2020/12/13 01:18:59;;;;;;;82.50;30.43;;;4.90;99.90;;;;;;4991236;28;20488;-67
2020/12/13 01:21:27;;;;;;;85.30;28.27;;;4.90;99.90;;;;;;4989715;28;20053;-67
2020/12/13 01:23:56;;;;;;;78.43;28.60;;;4.80;99.90;;;;;;4991027;28;20042;-67
2020/12/13 01:26:24;;;;;;;87.23;29.80;;;4.90;99.90;;;;;;4984129;28;20070;-67
2020/12/13 01:28:51;;;;;;;83.40;29.60;;;4.90;99.90;;;;;;4990533;28;20502;-67
2020/12/13 01:31:20;;;;;;;78.13;28.27;;;4.80;99.90;;;;;;4989186;28;20047;-67
2020/12/13 01:33:48;;;;;;;82.97;29.53;;;4.80;99.90;;;;;;4989100;28;20050;-67
2020/12/13 01:36:16;;;;;;;73.83;28.27;;;4.80;99.90;;;;;;4991858;28;20058;-67
2020/12/13 01:38:43;;;;;;;86.90;29.97;;;4.90;99.90;;;;;;4991629;28;20462;-67
2020/12/13 01:41:11;;;;;;;78.47;29.03;;;5.00;99.90;;;;;;4991333;28;20057;-68
2020/12/13 01:43:38;;;;;;;87.07;27.67;;;4.90;99.90;;;;;;4991435;28;20392;-67
2020/12/13 01:46:06;;;;;;;88.20;30.97;;;4.80;99.90;;;;;;4990967;28;20490;-67
2020/12/13 01:48:33;;;;;;;86.60;29.80;;;4.70;99.90;;;;;;4992230;28;20077;-67
2020/12/13 01:51:09;;;;;;;89.57;28.90;;;4.70;99.90;;;;;;4990485;28;20062;-67
2020/12/13 01:53:38;;;;;;;99.90;32.03;;;4.70;99.90;;;;;;4991463;28;20573;-67
2020/12/13 01:56:05;;;;;;;96.63;30.73;;;4.70;99.90;;;;;;4989959;28;20058;-67
2020/12/13 01:58:38;;;;;;;90.07;31.73;;;4.80;99.90;;;;;;4990638;28;20060;-67
2020/12/13 02:01:07;;;;;;;100.30;31.27;;;5.10;99.90;;;;;;4991612;28;20080;-67
2020/12/13 02:03:40;;;;;;;88.40;30.30;;;4.80;99.90;;;;;;4990560;28;20080;-67
2020/12/13 02:06:12;;;;;;;95.30;31.20;;;4.80;99.90;;;;;;4991608;28;20050;-67
2020/12/13 02:08:41;;;;;;;97.80;29.73;;;4.90;99.90;;;;;;4990684;28;20459;-67
2020/12/13 02:11:09;;;;;;;99.50;32.43;;;4.80;99.90;;;;;;4991313;28;20050;-67
2020/12/13 02:13:37;;;;;;;97.17;30.97;;;4.80;99.90;;;;;;4991233;28;20058;-67
2020/12/13 02:16:03;;;;;;;95.47;30.67;;;4.70;99.90;;;;;;4990733;28;20065;-67
2020/12/13 02:18:30;;;;;;;101.57;32.57;;;4.70;99.90;;;;;;4991145;28;20415;-67
2020/12/13 02:20:57;;;;;;;99.20;31.90;;;4.70;99.90;;;;;;4990390;28;20101;-67
2020/12/13 02:23:25;;;;;;;103.43;30.03;;;4.70;99.90;;;;;;4991459;28;20415;-67
2020/12/13 02:25:51;;;;;;;94.37;32.70;;;4.70;99.90;;;;;;4990093;28;20069;-67
2020/12/13 02:28:18;;;;;;;96.87;32.30;;;4.80;99.90;;;;;;4991589;28;20661;-67
2020/12/13 02:30:45;;;;;;;93.20;28.77;;;4.70;99.90;;;;;;4990930;28;20046;-67
2020/12/13 02:33:12;;;;;;;89.30;30.50;;;4.70;99.90;;;;;;4990389;28;20097;-67
2020/12/13 02:35:38;;;;;;;94.80;31.37;;;4.70;99.90;;;;;;4991240;28;20050;-67
2020/12/13 02:38:05;;;;;;;88.27;29.13;;;4.70;99.90;;;;;;4990515;28;20073;-67
2020/12/13 02:40:32;;;;;;;82.53;29.30;;;4.90;99.90;;;;;;4991006;28;20046;-67
2020/12/13 02:42:59;;;;;;;74.97;26.83;;;5.00;99.90;;;;;;4991134;28;20050;-67
2020/12/13 02:45:26;;;;;;;89.77;29.70;;;5.00;99.90;;;;;;4990271;28;20097;-67
2020/12/13 02:47:52;;;;;;;101.40;30.00;;;4.90;99.90;;;;;;4991289;28;20046;-67
2020/12/13 02:50:19;;;;;;;87.53;28.23;;;5.00;99.90;;;;;;4990294;28;20113;-67
2020/12/13 02:52:46;;;;;;;90.13;30.63;;;4.90;99.90;;;;;;4991010;28;20051;-67
2020/12/13 02:55:13;;;;;;;87.67;28.87;;;4.80;99.90;;;;;;4989878;28;20555;-67
2020/12/13 02:57:40;;;;;;;83.03;28.30;;;4.80;99.90;;;;;;4991078;28;20054;-69
2020/12/13 03:00:07;;;;;;;89.33;30.97;;;4.80;99.90;;;;;;4990914;28;20557;-67
2020/12/13 03:02:34;;;;;;;83.67;28.60;;;4.90;99.90;;;;;;4990388;28;20141;-67
2020/12/13 03:05:01;;;;;;;96.13;30.70;;;4.90;99.90;;;;;;4990828;28;20053;-67
2020/12/13 03:07:27;;;;;;;95.63;30.50;;;4.90;99.90;;;;;;4990405;28;20145;-67
2020/12/13 03:09:54;;;;;;;89.10;31.37;;;4.80;99.90;;;;;;4994053;28;20063;-67
2020/12/13 03:12:21;;;;;;;95.90;31.77;;;4.80;99.90;;;;;;4986964;28;20511;-67
2020/12/13 03:14:48;;;;;;;99.70;31.53;;;4.80;99.90;;;;;;4993656;28;20050;-67
2020/12/13 03:17:17;;;;;;;98.40;30.33;;;4.70;99.90;;;;;;4994163;28;20058;-67
2020/12/13 03:19:44;;;;;;;101.37;31.93;;;4.80;99.90;;;;;;4993010;28;20050;-67
2020/12/13 03:22:11;;;;;;;91.03;30.80;;;4.80;99.90;;;;;;4993243;28;20057;-67
2020/12/13 03:24:37;;;;;;;99.80;29.87;;;4.90;99.90;;;;;;4990923;28;20053;-67
2020/12/13 03:27:04;;;;;;;107.27;33.10;;;4.90;99.90;;;;;;4991962;28;20104;-67
2020/12/13 03:29:34;;;;;;;101.13;32.80;;;4.80;99.90;;;;;;4991844;28;20046;-68
2020/12/13 03:32:01;;;;;;;104.83;33.43;;;4.80;99.90;;;;;;4990412;28;20055;-67
2020/12/13 03:34:31;;;;;;;98.23;31.83;;;4.80;99.90;;;;;;4993684;28;20277;-67
2020/12/13 03:37:00;;;;;;;83.10;29.00;;;4.80;99.90;;;;;;4990435;28;20062;-67
2020/12/13 03:39:27;;;;;;;88.90;28.07;;;4.80;99.90;;;;;;4992261;28;20410;-67
2020/12/13 03:41:54;;;;;;;80.07;27.37;;;4.90;99.90;;;;;;4992737;28;20054;-67
2020/12/13 03:44:20;;;;;;;83.87;29.70;;;4.80;99.90;;;;;;4993154;28;20046;-67
2020/12/13 03:46:50;;;;;;;88.30;30.67;;;4.80;99.90;;;;;;4993876;28;20046;-67
2020/12/13 03:49:17;;;;;;;88.50;30.47;;;4.80;99.90;;;;;;4992472;28;20046;-67
2020/12/13 03:51:44;;;;;;;88.07;30.90;;;4.80;99.90;;;;;;4993144;28;20392;-67
2020/12/13 03:54:11;;;;;;;93.27;31.77;;;4.90;99.90;;;;;;4992526;28;20046;-67
2020/12/13 03:56:37;;;;;;;93.13;31.23;;;4.90;99.90;;;;;;4993586;28;20080;-67
2020/12/13 03:59:04;;;;;;;86.13;30.57;;;4.90;99.90;;;;;;4992545;28;20061;-67
2020/12/13 04:01:31;;;;;;;83.87;30.30;;;4.90;99.90;;;;;;4993001;28;20166;-67
2020/12/13 04:03:57;;;;;;;86.50;30.63;;;5.00;99.90;;;;;;4992750;28;20058;-67
2020/12/13 04:06:25;;;;;;;81.67;29.17;;;4.90;99.90;;;;;;4991888;28;20043;-67
2020/12/13 04:08:51;;;;;;;83.03;29.87;;;4.80;99.90;;;;;;4993078;28;20057;-67
2020/12/13 04:11:18;;;;;;;82.23;28.83;;;4.90;99.90;;;;;;4991992;28;20050;-67
2020/12/13 04:13:45;;;;;;;83.57;28.40;;;4.80;99.90;;;;;;4989850;28;20042;-67
2020/12/13 04:16:12;;;;;;;82.67;29.50;;;4.90;99.90;;;;;;4992296;28;20487;-67
2020/12/13 04:18:39;;;;;;;82.70;31.07;;;4.90;99.90;;;;;;4992702;28;20050;-68
2020/12/13 04:21:06;;;;;;;79.33;29.43;;;4.90;99.90;;;;;;5001677;28;20045;-68
2020/12/13 04:23:34;;;;;;;80.40;29.80;;;4.80;99.90;;;;;;5014707;28;20059;-67
2020/12/13 04:26:00;;;;;;;78.60;29.93;;;4.80;99.90;;;;;;5015751;28;20054;-67
2020/12/13 04:28:27;;;;;;;95.50;30.57;;;4.90;99.90;;;;;;5012269;28;20054;-67
2020/12/13 04:30:54;;;;;;;81.70;29.53;;;4.90;99.90;;;;;;5016143;28;20138;-67
2020/12/13 04:33:20;;;;;;;80.27;29.10;;;4.90;99.90;;;;;;5015627;28;20111;-67
2020/12/13 04:35:47;;;;;;;85.63;31.80;;;4.90;99.90;;;;;;5016234;28;20061;-67
2020/12/13 04:38:14;;;;;;;83.37;28.87;;;4.90;99.90;;;;;;5014052;28;20060;-67
2020/12/13 04:40:45;;;;;;;78.87;29.97;;;4.90;99.90;;;;;;4992912;28;20072;-67
2020/12/13 04:43:12;;;;;;;75.37;28.73;;;4.90;99.90;;;;;;4990831;28;20411;-67
2020/12/13 04:45:39;;;;;;;79.83;27.63;;;4.90;99.90;;;;;;4991527;28;20046;-67
2020/12/13 04:48:07;;;;;;;73.60;27.33;;;5.10;99.90;;;;;;4992631;28;20054;-67
2020/12/13 04:50:36;;;;;;;75.83;27.77;;;5.00;99.90;;;;;;4991237;28;20431;-67
2020/12/13 04:53:05;;;;;;;80.63;28.77;;;5.00;99.90;;;;;;4992544;28;20050;-67
2020/12/13 04:55:32;;;;;;;68.57;27.87;;;5.00;99.90;;;;;;4992343;28;20050;-67
2020/12/13 04:58:00;;;;;;;77.00;27.70;;;5.00;99.90;;;;;;4991805;28;20054;-67
2020/12/13 05:00:30;;;;;;;70.10;27.63;;;5.00;99.90;;;;;;4991804;28;20050;-67
2020/12/13 05:02:57;;;;;;;74.00;28.20;;;5.00;99.90;;;;;;4991904;28;20058;-67
2020/12/13 05:05:24;;;;;;;74.40;27.23;;;5.00;99.90;;;;;;4992403;28;20050;-67
2020/12/13 05:07:51;;;;;;;81.50;29.20;;;5.00;99.90;;;;;;4992118;28;20513;-67
2020/12/13 05:10:19;;;;;;;78.27;27.87;;;5.00;99.90;;;;;;4992270;28;20522;-67
2020/12/13 05:12:45;;;;;;;80.10;29.40;;;5.10;99.90;;;;;;4991943;28;20438;-67
2020/12/13 05:15:13;;;;;;;80.17;28.17;;;5.10;99.90;;;;;;4991996;28;20057;-67
2020/12/13 05:17:40;;;;;;;79.03;28.23;;;5.10;99.90;;;;;;4992867;28;20054;-67
2020/12/13 05:20:06;;;;;;;87.67;31.57;;;5.20;99.90;;;;;;4991865;28;20066;-67
2020/12/13 05:22:38;;;;;;;82.03;29.83;;;5.20;99.90;;;;;;4992274;28;20054;-67
2020/12/13 05:25:12;;;;;;;80.13;29.37;;;5.10;99.90;;;;;;4991261;28;20057;-67
2020/12/13 05:27:40;;;;;;;87.10;30.60;;;5.10;99.90;;;;;;4992333;28;20419;-67
2020/12/13 05:30:08;;;;;;;86.73;29.90;;;5.00;99.90;;;;;;4992176;28;20105;-67
2020/12/13 05:32:36;;;;;;;84.17;29.30;;;5.00;99.90;;;;;;4991748;28;20054;-67
2020/12/13 05:35:04;;;;;;;76.37;27.23;;;5.10;99.90;;;;;;4992415;28;20085;-67
2020/12/13 05:37:30;;;;;;;90.33;29.27;;;5.10;99.90;;;;;;4991235;28;20053;-67
2020/12/13 05:39:57;;;;;;;86.23;29.00;;;5.00;99.90;;;;;;4992023;28;20050;-67
2020/12/13 05:42:26;;;;;;;90.40;30.17;;;5.00;99.90;;;;;;4991188;28;20050;-67
2020/12/13 05:53:06;;;;;;;99.23;33.53;;;4.90;99.90;;;;;;4984763;28;20138;-67
2020/12/13 05:55:35;;;;;;;95.10;31.17;;;4.80;99.90;;;;;;4991221;28;20448;-67
2020/12/13 05:58:02;;;;;;;99.13;32.70;;;4.90;99.90;;;;;;4992405;28;20077;-67
2020/12/13 06:00:29;;;;;;;98.03;32.00;;;4.90;99.90;;;;;;4990553;28;20058;-67
2020/12/13 06:02:59;;;;;;;84.03;30.37;;;4.90;99.90;;;;;;4991615;28;20046;-67
2020/12/13 06:05:28;;;;;;;92.63;31.07;;;4.90;99.90;;;;;;4991187;28;20434;-67
2020/12/13 06:07:58;;;;;;;92.60;30.00;;;4.90;99.90;;;;;;4991716;28;20054;-67
2020/12/13 06:10:24;;;;;;;98.97;30.20;;;4.90;99.90;;;;;;4991242;28;20058;-67
2020/12/13 06:13:00;;;;;;;95.33;29.93;;;4.90;99.90;;;;;;4990857;28;20054;-67
2020/12/13 06:15:28;;;;;;;87.27;29.43;;;4.90;99.90;;;;;;4991613;28;20510;-67
2020/12/13 06:17:56;;;;;;;88.53;30.50;;;4.90;99.90;;;;;;4990930;28;20061;-67
2020/12/13 06:20:23;;;;;;;92.87;30.10;;;4.90;99.90;;;;;;4991443;28;20120;-67
2020/12/13 06:22:54;;;;;;;87.77;31.70;;;4.90;99.90;;;;;;4991022;28;20058;-67
2020/12/13 06:25:21;;;;;;;85.90;29.17;;;4.90;99.90;;;;;;4991864;28;20061;-67
2020/12/13 06:27:49;;;;;;;82.87;30.50;;;5.00;99.90;;;;;;4991546;28;20634;-67
2020/12/13 06:30:16;;;;;;;95.70;31.83;;;5.00;99.90;;;;;;4991206;28;20491;-67
2020/12/13 06:32:46;;;;;;;90.50;30.57;;;4.90;99.90;;;;;;4991897;28;20054;-69
2020/12/13 06:35:15;;;;;;;90.87;31.57;;;4.90;99.90;;;;;;4991504;28;20088;-68
2020/12/13 06:37:41;;;;;;;101.10;32.50;;;4.90;99.90;;;;;;4992092;28;20054;-67
2020/12/13 06:40:10;;;;;;;98.13;31.63;;;5.00;99.90;;;;;;4990586;28;20108;-67
2020/12/13 06:42:40;;;;;;;83.50;30.80;;;5.00;99.90;;;;;;4993231;28;20142;-67
2020/12/13 06:45:11;;;;;;;89.27;30.27;;;5.00;99.90;;;;;;4998683;28;20061;-67
2020/12/13 06:47:40;;;;;;;89.47;32.20;;;5.00;99.90;;;;;;4997880;28;20415;-67
2020/12/13 06:50:09;;;;;;;90.07;30.00;;;5.00;99.90;;;;;;4998246;28;20050;-66
2020/12/13 06:52:37;;;;;;;82.33;31.30;;;5.00;99.90;;;;;;4997688;28;20411;-67
2020/12/13 06:55:05;;;;;;;91.47;31.30;;;5.00;99.90;;;;;;4998065;28;20138;-67
2020/12/13 06:57:34;;;;;;;88.13;29.30;;;5.00;99.90;;;;;;4996852;28;20051;-67
2020/12/13 07:00:05;;;;;;;85.43;28.60;;;5.10;99.90;;;;;;4998352;28;20055;-67
2020/12/13 07:02:46;;;;;;;93.10;31.93;;;5.00;99.90;;;;;;4998576;28;20058;-67
2020/12/13 07:05:13;;;;;;;95.83;31.07;;;5.10;99.90;;;;;;4998359;28;20062;-67
2020/12/13 07:07:47;;;;;;;105.20;32.40;;;5.10;99.90;;;;;;4997623;28;20054;-67
2020/12/13 07:10:14;;;;;;;89.87;30.10;;;5.10;99.90;;;;;;4996468;28;20545;-67
2020/12/13 07:12:50;;;;;;;93.83;30.73;;;5.10;99.90;;;;;;4997543;28;20458;-67
2020/12/13 07:15:24;;;;;;;92.77;31.57;;;5.10;99.90;;;;;;4997263;28;20065;-67
2020/12/13 07:17:51;;;;;;;89.73;30.73;;;5.10;99.90;;;;;;4997643;28;20137;-67
2020/12/13 07:20:20;;;;;;;87.23;33.13;;;5.20;99.90;;;;;;4996453;28;20050;-67
2020/12/13 07:22:48;;;;;;;88.83;30.77;;;5.10;99.90;;;;;;4997527;28;20050;-67
2020/12/13 07:25:14;;;;;;;89.73;29.60;;;5.10;99.90;;;;;;4997169;28;20142;-67
2020/12/13 07:27:42;;;;;;;87.77;30.53;;;5.10;99.90;;;;;;4996638;28;20054;-67
2020/12/13 07:30:12;;;;;;;84.23;29.63;;;5.20;99.90;;;;;;4996866;28;20093;-67
2020/12/13 07:32:39;;;;;;;82.20;28.63;;;5.20;99.90;;;;;;4996630;28;20060;-67
2020/12/13 07:35:12;;;;;;;88.40;31.00;;;5.20;99.90;;;;;;4997287;28;20100;-67
2020/12/13 07:37:39;;;;;;;88.07;30.83;;;5.20;99.90;;;;;;4996884;28;20054;-68
2020/12/13 07:40:11;;;;;;;85.53;30.13;;;5.20;99.90;;;;;;4996902;28;20053;-66
2020/12/13 07:42:38;;;;;;;87.47;28.83;;;5.20;99.90;;;;;;4996402;28;20502;-67
2020/12/13 07:45:05;;;;;;;90.43;30.10;;;5.10;99.90;;;;;;4997287;28;20058;-67
2020/12/13 07:47:32;;;;;;;92.00;31.47;;;5.20;99.90;;;;;;4997150;28;20057;-67
2020/12/13 07:50:03;;;;;;;82.90;28.13;;;5.20;99.90;;;;;;4997188;28;20415;-67
2020/12/13 07:52:30;;;;;;;85.33;28.80;;;5.20;99.90;;;;;;4997815;28;20442;-66
2020/12/13 07:55:05;;;;;;;90.67;29.23;;;5.20;99.90;;;;;;4994070;28;20069;-67
2020/12/13 07:57:35;;;;;;;87.20;29.63;;;5.20;99.90;;;;;;4994013;28;20495;-67
2020/12/13 08:00:11;;;;;;;93.97;31.97;;;5.30;99.90;;;;;;4993276;28;20109;-67
2020/12/13 08:02:38;;;;;;;92.20;29.90;;;5.30;99.90;;;;;;4986021;28;20070;-69
2020/12/13 08:05:05;;;;;;;86.47;29.27;;;5.20;99.90;;;;;;4971564;28;20055;-69
2020/12/13 08:07:32;;;;;;;97.43;31.40;;;5.20;99.90;;;;;;4971250;28;20054;-76
2020/12/13 08:09:58;;;;;;;87.73;28.57;;;5.20;99.90;;;;;;4972881;28;20059;-72
2020/12/13 08:12:37;;;;;;;98.87;30.23;;;5.20;99.90;;;;;;4981770;28;20050;-69
2020/12/13 08:15:04;;;;;;;99.93;31.37;;;5.30;99.90;;;;;;4994026;28;20108;-68
2020/12/13 08:17:31;;;;;;;84.57;28.47;;;5.20;99.90;;;;;;4993673;28;20054;-69
2020/12/13 08:20:02;;;;;;;95.20;31.63;;;5.20;99.90;;;;;;4993142;28;20050;-70
2020/12/13 08:22:34;;;;;;;96.40;30.27;;;5.20;99.90;;;;;;4992764;28;20054;-74
2020/12/13 08:25:02;;;;;;;88.70;30.23;;;5.40;99.90;;;;;;4993777;28;20070;-73
2020/12/13 08:27:30;;;;;;;88.63;30.07;;;5.50;99.90;;;;;;4993811;28;20113;-70
2020/12/13 08:29:59;;;;;;;93.77;30.93;;;5.40;99.90;;;;;;4992942;28;20056;-71
2020/12/13 08:32:31;;;;;;;93.40;31.80;;;5.40;99.90;;;;;;4994292;28;20069;-69
2020/12/13 08:35:09;;;;;;;91.63;33.57;;;5.50;99.90;;;;;;4992511;28;20050;-69
2020/12/13 08:37:36;;;;;;;97.57;32.47;;;5.50;99.90;;;;;;4993794;28;20470;-69
2020/12/13 08:40:07;;;;;;;93.37;33.23;;;5.50;99.90;;;;;;4992740;28;20055;-72
2020/12/13 08:42:34;;;;;;;93.40;32.47;;;5.50;99.90;;;;;;4993108;28;20101;-69
2020/12/13 08:45:01;;;;;;;85.43;32.13;;;5.50;99.90;;;;;;4992853;28;20152;-68
2020/12/13 08:47:32;;;;;;;91.13;32.13;;;5.50;99.90;;;;;;4992045;28;20089;-68
2020/12/13 08:49:59;;;;;;;85.17;31.00;;;5.40;99.90;;;;;;4993525;28;20105;-69
2020/12/13 08:52:28;;;;;;;91.63;30.77;;;5.40;99.90;;;;;;4992471;28;20141;-70
2020/12/13 08:54:56;;;;;;;96.00;32.03;;;5.40;99.90;;;;;;4993172;28;20054;-68
2020/12/13 08:57:27;;;;;;;91.93;31.17;;;5.50;99.90;;;;;;4992782;28;20495;-68
2020/12/13 08:59:57;;;;;;;83.33;29.70;;;5.50;99.90;;;;;;4993145;28;20058;-70
2020/12/13 09:02:25;;;;;;;85.77;30.10;;;5.50;99.90;;;;;;4992794;28;20057;-69
2020/12/13 09:04:55;;;;;;;93.70;32.03;;;5.60;99.90;;;;;;4986727;28;20042;-70
2020/12/13 09:07:23;;;;;;;85.55;29.42;;;5.60;99.90;;;;;;4988112;28;20391;-69
2020/12/13 09:09:50;;;;;;;94.18;31.67;;;5.60;99.90;;;;;;4991640;28;20050;-73
2020/12/13 09:12:28;;;;;;;84.23;30.03;;;5.60;99.90;;;;;;4991487;28;20047;-69
2020/12/13 09:14:56;;;;;;;97.57;32.23;;;5.70;99.90;;;;;;4991301;28;20062;-68
2020/12/13 09:17:26;;;;;;;80.93;29.93;;;5.70;99.90;;;;;;4993860;28;20058;-68
2020/12/13 09:19:55;;;;;;;95.10;30.37;;;5.80;99.90;;;;;;4993324;28;20054;-67
2020/12/13 09:22:23;;;;;;;88.65;29.48;;;5.80;99.90;;;;;;4993231;28;20307;-70
2020/12/13 09:24:50;;;;;;;89.77;29.93;;;5.90;99.90;;;;;;4993614;28;20054;-71
2020/12/13 09:27:23;;;;;;;86.63;32.10;;;5.90;99.90;;;;;;4985952;28;20097;-72
2020/12/13 09:29:51;;;;;;;86.63;30.00;;;5.80;99.90;;;;;;4990242;28;20058;-73
2020/12/13 09:32:19;;;;;;;101.50;29.75;;;5.80;99.90;;;;;;4988724;28;20046;-73
2020/12/13 09:34:47;;;;;;;106.97;33.67;;;5.70;99.90;;;;;;4991330;28;20050;-72
2020/12/13 09:37:17;;;;;;;100.80;29.90;;;5.70;99.90;;;;;;4975844;28;20066;-72
2020/12/13 09:39:44;;;;;;;101.83;31.87;;;5.70;99.90;;;;;;4987090;28;20061;-71
2020/12/13 09:42:14;;;;;;;104.17;30.37;;;5.70;99.90;;;;;;4977311;28;20054;-73
2020/12/13 09:44:47;;;;;;;103.23;30.50;;;5.80;99.90;;;;;;4980965;28;20487;-72
2020/12/13 09:47:13;;;;;;;100.60;31.33;;;5.80;99.90;;;;;;4990294;28;20451;-72
2020/12/13 09:49:41;;;;;;;113.97;33.03;;;5.80;99.90;;;;;;4995693;28;20419;-73
2020/12/13 09:52:09;;;;;;;93.87;30.63;;;5.80;99.90;;;;;;4972471;28;20496;-71
2020/12/13 09:54:35;;;;;;;103.80;32.08;;;5.80;99.90;;;;;;4972642;28;20054;-72
2020/12/13 09:57:02;;;;;;;109.97;29.83;;;5.90;99.90;;;;;;4985476;28;20050;-72
2020/12/13 09:59:29;;;;;;;104.03;30.33;;;6.00;99.90;;;;;;4990561;28;20050;-72
2020/12/13 10:01:56;;;;;;;108.55;29.15;;;6.10;99.90;;;;;;4987644;28;20057;-72
2020/12/13 10:04:23;;;;;;;101.65;32.13;;;5.90;99.90;;;;;;4980502;28;20043;-72
2020/12/13 10:09:38;;;;;;;124.03;32.13;;;5.80;99.90;;;;;;5000965;28;20043;-74
2020/12/13 10:12:05;;;;;;;105.35;30.77;;;5.90;99.90;;;;;;5004751;28;20054;-73
2020/12/13 10:14:32;;;;;;;122.23;30.73;;;5.80;99.90;;;;;;5004950;28;20039;-74
2020/12/13 10:16:58;;;;;;;133.50;34.43;;;5.80;99.90;;;;;;5000794;28;20062;-71
2020/12/13 10:19:25;;;;;;;125.13;33.22;;;5.80;99.90;;;;;;5006002;28;20106;-75
2020/12/13 10:21:52;;;;;;;144.23;34.77;;;5.90;99.90;;;;;;5006970;28;20495;-73
2020/12/13 10:24:19;;;;;;;136.90;31.90;;;5.90;99.90;;;;;;4990362;28;20061;-77
2020/12/13 10:26:46;;;;;;;129.80;31.95;;;5.90;99.90;;;;;;4991065;28;20046;-73
2020/12/13 10:29:14;;;;;;;135.55;32.33;;;5.90;99.90;;;;;;4990678;28;20050;-77
2020/12/13 10:31:41;;;;;;;125.38;32.72;;;5.90;99.90;;;;;;4992861;28;20050;-72
2020/12/13 10:34:11;;;;;;;128.73;33.30;;;6.00;99.90;;;;;;4995727;28;20060;-74
2020/12/13 10:36:40;;;;;;;110.10;31.90;;;6.00;99.90;;;;;;4996133;28;20100;-74
2020/12/13 10:39:09;;;;;;;120.43;34.50;;;6.10;99.90;;;;;;4982740;28;20050;-69
2020/12/13 10:41:36;;;;;;;120.72;32.72;;;6.10;99.90;;;;;;4988708;28;20054;-69
2020/12/13 10:44:04;;;;;;;105.53;31.35;;;6.10;99.90;;;;;;4988079;28;20050;-69
2020/12/13 10:46:32;;;;;;;104.22;30.13;;;6.20;99.90;;;;;;4983468;28;20047;-71
2020/12/13 10:48:58;;;;;;;104.57;31.23;;;6.10;99.90;;;;;;4977608;28;20050;-67
2020/12/13 10:51:25;;;;;;;108.85;30.80;;;6.20;99.90;;;;;;4980030;28;20066;-68
2020/12/13 10:53:52;;;;;;;114.45;31.00;;;6.20;99.90;;;;;;4986358;28;20051;-76
2020/12/13 10:56:19;;;;;;;112.40;32.35;;;6.10;99.90;;;;;;4987759;28;20082;-71
2020/12/13 10:58:46;;;;;;;110.82;32.08;;;6.30;99.90;;;;;;4982972;28;20050;-69
2020/12/13 11:01:14;;;;;;;99.95;30.88;;;6.30;99.90;;;;;;4980465;28;20054;-71
2020/12/13 11:03:41;;;;;;;98.82;31.02;;;6.30;99.90;;;;;;4979743;28;20051;-70
2020/12/13 11:06:09;;;;;;;106.78;31.45;;;6.40;99.90;;;;;;4979895;28;20050;-69
2020/12/13 11:08:36;;;;;;;103.32;31.10;;;6.40;99.90;;;;;;4984032;28;20074;-69
2020/12/13 11:11:03;;;;;;;110.10;31.75;;;6.60;99.90;;;;;;4986277;28;20053;-70
2020/12/13 11:13:30;;;;;;;97.57;31.95;;;6.50;99.90;;;;;;4986643;28;20073;-69
2020/12/13 11:15:57;;;;;;;109.45;33.30;;;6.60;99.90;;;;;;4974391;28;20455;-69
2020/12/13 11:18:29;;;;;;;113.38;31.55;;;6.60;99.90;;;;;;4986434;28;20054;-69
2020/12/13 11:20:56;;;;;;;106.15;32.95;;;6.50;99.90;;;;;;4980283;28;20137;-71
2020/12/13 11:23:23;;;;;;;94.82;29.52;;;6.60;99.90;;;;;;4979342;28;20061;-71
2020/12/13 11:25:50;;;;;;;104.88;30.35;;;6.50;99.90;;;;;;4984929;28;20050;-69
2020/12/13 11:28:17;;;;;;;105.65;31.70;;;6.60;99.90;;;;;;4985339;28;20422;-70
2020/12/13 11:30:43;;;;;;;93.22;30.17;;;6.60;99.90;;;;;;4987486;28;20055;-69
2020/12/13 11:33:10;;;;;;;96.75;28.00;;;6.70;99.90;;;;;;4991588;28;20415;-69
2020/12/13 11:35:38;;;;;;;103.47;29.83;;;6.70;99.90;;;;;;4989289;28;20488;-69
2020/12/13 11:38:05;;;;;;;97.30;28.63;;;6.70;99.90;;;;;;4988278;28;20050;-69
2020/12/13 11:40:32;;;;;;;95.10;29.30;;;6.70;99.90;;;;;;4990124;28;20058;-69
2020/12/13 11:43:00;;;;;;;84.88;28.95;;;6.80;99.90;;;;;;4989988;28;20065;-69
2020/12/13 11:45:27;;;;;;;102.80;29.02;;;6.70;99.90;;;;;;4977954;28;20146;-69
2020/12/13 11:47:53;;;;;;;102.25;29.85;;;6.70;99.90;;;;;;4975831;28;20047;-69
2020/12/13 11:50:20;;;;;;;101.85;30.30;;;6.80;99.90;;;;;;4978025;28;20055;-69
2020/12/13 11:52:48;;;;;;;101.57;30.70;;;6.70;99.90;;;;;;4979562;28;20046;-69
2020/12/13 11:55:14;;;;;;;102.97;29.85;;;6.60;99.90;;;;;;4977399;28;20050;-69
2020/12/13 11:57:41;;;;;;;98.22;30.73;;;6.70;99.90;;;;;;4984337;28;20058;-70
2020/12/13 12:00:08;;;;;;;105.10;30.13;;;6.70;99.90;;;;;;4991946;28;20050;-69
2020/12/13 12:02:35;;;;;;;100.82;31.25;;;6.70;99.90;;;;;;4989772;28;20133;-69
2020/12/13 12:05:02;;;;;;;98.00;28.40;;;6.70;99.90;;;;;;4978174;28;20050;-69
2020/12/13 12:07:28;;;;;;;101.05;28.60;;;6.80;99.90;;;;;;4976833;28;20065;-70
2020/12/13 12:09:56;;;;;;;94.57;28.40;;;6.70;99.90;;;;;;4987172;28;20065;-69
2020/12/13 12:12:23;;;;;;;88.88;27.33;;;6.80;99.90;;;;;;4988544;28;20047;-69
2020/12/13 12:14:50;;;;;;;103.32;28.67;;;6.80;99.90;;;;;;4979083;28;20411;-69
2020/12/13 12:17:16;;;;;;;107.10;32.55;;;6.90;99.90;;;;;;4976463;28;20130;-71
2020/12/13 12:19:44;;;;;;;114.93;33.95;;;6.80;99.90;;;;;;4977081;28;20454;-69
2020/12/13 12:22:10;;;;;;;105.63;31.02;;;6.80;99.90;;;;;;4977202;28;20117;-69
2020/12/13 12:24:37;;;;;;;101.05;30.35;;;6.70;99.90;;;;;;4986735;28;20559;-69
2020/12/13 12:27:08;;;;;;;103.90;29.45;;;6.80;99.90;;;;;;4987832;28;20050;-73
2020/12/13 12:29:34;;;;;;;91.88;29.80;;;6.80;99.90;;;;;;4984683;28;20121;-69
2020/12/13 12:32:01;;;;;;;96.75;29.00;;;6.80;99.90;;;;;;4989487;28;20061;-69
2020/12/13 12:34:28;;;;;;;95.70;29.08;;;6.80;99.90;;;;;;4982821;28;20514;-69
2020/12/13 12:36:55;;;;;;;97.82;29.35;;;6.80;99.90;;;;;;4977552;28;20089;-70
2020/12/13 12:39:21;;;;;;;103.55;31.33;;;6.80;99.90;;;;;;4982380;28;20074;-69
2020/12/13 12:41:48;;;;;;;110.18;29.77;;;6.80;99.90;;;;;;4982442;28;20061;-69
2020/12/13 12:44:16;;;;;;;94.32;28.67;;;6.80;99.90;;;;;;4977174;28;20055;-69
2020/12/13 12:46:43;;;;;;;111.22;32.50;;;6.80;99.90;;;;;;4990637;28;20606;-69
2020/12/13 12:49:09;;;;;;;107.93;32.05;;;6.90;99.90;;;;;;4985544;28;20126;-69